Time;durP1;ratioP1;P1;durP2;ratioP2;P2;SDS_P1;SDS_P2;PMS_P1;PMS_P2;Temp;Humidity;BMP_temperature;BMP_pressure;BME280_temperature;BME280_humidity;BME280_pressure;Samples;Min_cycle;Max_cycle;Signal;HPM_P1;HPM_P2
2023/09/16 00:01:45;;;;;;;10.60;9.70;;;;;;;24.46;56.44;102016.91;106942;1254;25328;-53
2023/09/16 00:04:12;;;;;;;10.00;9.20;;;;;;;24.43;56.41;102017.11;106908;1254;25413;-54
2023/09/16 00:06:39;;;;;;;10.30;9.30;;;;;;;24.40;56.69;102020.45;106971;1263;22523;-54
2023/09/16 00:09:07;;;;;;;11.50;10.00;;;;;;;24.40;56.74;102018.90;106681;1260;25386;-54
2023/09/16 00:11:34;;;;;;;11.00;10.00;;;;;;;24.38;56.94;102021.81;106687;1267;25478;-55
2023/09/16 00:14:00;;;;;;;11.20;10.10;;;;;;;24.36;57.14;102021.98;106863;1263;23475;-53
2023/09/16 00:16:29;;;;;;;11.00;10.10;;;;;;;24.35;57.19;102025.74;106975;1251;25346;-54
2023/09/16 00:18:57;;;;;;;10.80;9.60;;;;;;;24.34;57.31;102026.36;106684;1273;25349;-53
2023/09/16 00:21:24;;;;;;;11.20;9.90;;;;;;;24.34;57.17;102030.80;106959;1254;25545;-53
2023/09/16 00:23:52;;;;;;;10.20;9.20;;;;;;;24.33;57.00;102031.73;107141;1263;25322;-54
2023/09/16 00:26:19;;;;;;;10.40;9.40;;;;;;;24.30;56.79;102031.00;107006;1263;24314;-52
2023/09/16 00:28:47;;;;;;;10.60;9.50;;;;;;;24.28;56.64;102027.79;106882;1256;25376;-54
2023/09/16 00:31:14;;;;;;;10.30;9.30;;;;;;;24.25;56.60;102030.39;106921;1256;25331;-53
2023/09/16 00:33:42;;;;;;;9.90;8.80;;;;;;;24.22;56.56;102032.45;106399;1267;25360;-54
2023/09/16 00:36:09;;;;;;;10.30;9.30;;;;;;;24.20;56.53;102033.13;106971;1257;25782;-54
2023/09/16 00:38:36;;;;;;;9.60;8.30;;;;;;;24.19;56.61;102033.93;106911;1263;23269;-54
2023/09/16 00:41:03;;;;;;;9.90;9.10;;;;;;;24.17;56.78;102036.73;106768;1257;25408;-54
2023/09/16 00:43:30;;;;;;;10.00;9.10;;;;;;;24.14;56.72;102038.45;106876;1263;24417;-54
2023/09/16 00:45:57;;;;;;;9.80;8.80;;;;;;;24.12;56.71;102036.29;106933;1263;25386;-54
2023/09/16 00:48:24;;;;;;;10.10;9.20;;;;;;;24.09;56.64;102035.20;106802;1261;25322;-54
2023/09/16 00:50:51;;;;;;;10.20;9.30;;;;;;;24.07;56.57;102040.64;106910;1266;25341;-54
2023/09/16 00:53:19;;;;;;;10.00;8.90;;;;;;;24.05;56.78;102042.05;106997;1257;25477;-53
2023/09/16 00:55:48;;;;;;;10.50;9.50;;;;;;;24.03;56.79;102045.15;106380;1272;22533;-54
2023/09/16 00:58:17;;;;;;;10.10;9.10;;;;;;;24.01;56.77;102050.76;106835;1262;26158;-54
2023/09/16 01:00:45;;;;;;;9.90;9.10;;;;;;;23.99;56.95;102055.61;106943;1257;25376;-54
2023/09/16 01:03:14;;;;;;;10.00;9.10;;;;;;;23.99;57.10;102054.58;106954;1256;24272;-54
2023/09/16 01:05:44;;;;;;;11.20;9.80;;;;;;;23.97;57.23;102055.39;106842;1255;25396;-54
2023/09/16 01:08:12;;;;;;;10.60;9.70;;;;;;;23.95;57.25;102054.09;106341;1271;25462;-53
2023/09/16 01:10:40;;;;;;;9.90;9.10;;;;;;;23.95;57.16;102061.52;106595;1260;25329;-53
2023/09/16 01:13:08;;;;;;;10.60;9.60;;;;;;;23.95;57.31;102064.55;106261;1264;25516;-54
2023/09/16 01:15:39;;;;;;;9.80;9.00;;;;;;;23.95;57.38;102060.98;106243;1265;24252;-53
2023/09/16 01:18:35;;;;;;;10.10;9.20;;;;;;;23.96;57.30;102064.16;106413;1260;24239;-53
2023/09/16 01:21:06;;;;;;;9.90;9.00;;;;;;;23.97;57.20;102066.04;106165;1272;22540;-53
2023/09/16 01:23:33;;;;;;;10.30;9.10;;;;;;;23.98;57.04;102066.30;106090;1269;25373;-54
2023/09/16 01:26:03;;;;;;;10.10;9.10;;;;;;;23.98;57.09;102065.80;106206;1265;24211;-53
2023/09/16 01:28:30;;;;;;;9.90;9.00;;;;;;;23.99;56.92;102064.66;106080;1265;25530;-54
2023/09/16 01:30:57;;;;;;;10.30;9.40;;;;;;;24.00;56.77;102066.58;106043;1268;22826;-53
2023/09/16 01:33:44;;;;;;;10.00;9.10;;;;;;;23.99;56.79;102064.33;106044;1266;23470;-53
2023/09/16 01:36:18;;;;;;;9.90;8.90;;;;;;;23.98;56.86;102065.80;105972;1266;25312;-53
2023/09/16 01:38:49;;;;;;;10.60;9.60;;;;;;;23.98;56.99;102063.64;106276;1265;25421;-53
2023/09/16 01:41:17;;;;;;;9.80;8.90;;;;;;;23.98;56.93;102068.08;106259;1272;23209;-53
2023/09/16 01:43:45;;;;;;;9.70;8.80;;;;;;;23.98;57.14;102070.23;106240;1272;25398;-52
2023/09/16 01:46:12;;;;;;;10.50;9.40;;;;;;;23.96;57.19;102068.76;106453;1270;25499;-53
2023/09/16 01:48:40;;;;;;;9.60;8.80;;;;;;;23.94;57.24;102072.20;106352;1266;25398;-52
2023/09/16 01:51:14;;;;;;;11.70;9.10;;;;;;;23.92;57.46;102074.10;106336;1266;25491;-53
2023/09/16 01:53:42;;;;;;;10.30;9.30;;;;;;;23.91;57.58;102080.02;106252;1272;24460;-54
2023/09/16 01:56:09;;;;;;;9.90;9.10;;;;;;;23.89;57.65;102081.00;106387;1257;25332;-53
2023/09/16 01:58:36;;;;;;;10.20;9.20;;;;;;;23.88;58.02;102079.45;106778;1263;25318;-52
2023/09/16 02:01:10;;;;;;;11.30;9.30;;;;;;;23.88;58.16;102083.75;106731;1263;25318;-54
2023/09/16 02:03:38;;;;;;;10.60;9.60;;;;;;;23.86;57.99;102084.77;106508;1270;25318;-53
2023/09/16 02:06:05;;;;;;;10.50;9.30;;;;;;;23.83;58.11;102083.11;106639;1260;25373;-53
2023/09/16 02:08:32;;;;;;;11.50;9.70;;;;;;;23.83;58.05;102085.27;106861;1256;24228;-53
2023/09/16 02:11:00;;;;;;;9.80;8.90;;;;;;;23.81;57.96;102088.02;106788;1257;25287;-54
2023/09/16 02:13:27;;;;;;;10.70;9.50;;;;;;;23.78;57.90;102086.41;106727;1258;25481;-53
2023/09/16 02:15:54;;;;;;;10.80;9.50;;;;;;;23.76;57.93;102087.93;107024;1267;25484;-53
2023/09/16 02:18:21;;;;;;;10.30;9.30;;;;;;;23.76;58.17;102089.17;106909;1270;25401;-53
2023/09/16 02:20:48;;;;;;;9.80;8.90;;;;;;;23.74;58.25;102091.61;106992;1262;25321;-53
2023/09/16 02:23:15;;;;;;;10.70;9.70;;;;;;;23.73;58.37;102091.84;107039;1265;25481;-53
2023/09/16 02:25:43;;;;;;;11.10;10.10;;;;;;;23.69;58.35;102099.15;106995;1264;25340;-54
2023/09/16 02:28:10;;;;;;;10.80;9.70;;;;;;;23.64;58.51;102092.36;106962;1263;25359;-54
2023/09/16 02:30:37;;;;;;;10.50;9.60;;;;;;;23.60;58.58;102094.17;106715;1273;25468;-54
2023/09/16 02:33:04;;;;;;;10.40;9.30;;;;;;;23.59;58.58;102095.50;106786;1266;25319;-54
2023/09/16 02:35:32;;;;;;;11.60;10.20;;;;;;;23.56;58.77;102097.06;106936;1261;25389;-54
2023/09/16 02:38:02;;;;;;;11.50;9.80;;;;;;;23.55;58.85;102097.31;106842;1266;25366;-54
2023/09/16 02:40:29;;;;;;;12.20;11.00;;;;;;;23.53;58.66;102100.25;107190;1260;25336;-54
2023/09/16 02:42:56;;;;;;;12.10;10.90;;;;;;;23.51;58.61;102104.42;106815;1263;25475;-54
2023/09/16 02:45:23;;;;;;;12.50;11.00;;;;;;;23.50;58.64;102106.27;106869;1260;25309;-54
2023/09/16 02:47:51;;;;;;;12.30;10.80;;;;;;;23.47;58.57;102108.91;106713;1272;25459;-52
2023/09/16 02:50:18;;;;;;;12.70;11.50;;;;;;;23.45;58.54;102107.92;106449;1274;25792;-53
2023/09/16 02:52:45;;;;;;;12.40;11.20;;;;;;;23.43;58.58;102114.95;106551;1275;25315;-53
2023/09/16 02:55:12;;;;;;;16.20;12.00;;;;;;;23.40;58.58;102114.94;106869;1269;25402;-53
2023/09/16 02:57:39;;;;;;;12.50;11.40;;;;;;;23.38;58.70;102120.00;106893;1254;25393;-53
2023/09/16 03:00:07;;;;;;;12.70;11.40;;;;;;;23.37;58.86;102121.64;107008;1251;25340;-54
2023/09/16 03:02:34;;;;;;;12.40;11.30;;;;;;;23.36;58.72;102124.52;106709;1266;25293;-53
2023/09/16 03:05:02;;;;;;;12.70;11.40;;;;;;;23.33;58.75;102125.92;106742;1258;25538;-55
2023/09/16 03:07:29;;;;;;;12.20;11.00;;;;;;;23.32;58.92;102127.04;106723;1255;24205;-53
2023/09/16 03:09:56;;;;;;;12.90;11.70;;;;;;;23.31;58.77;102126.58;106862;1254;25356;-53
2023/09/16 03:12:24;;;;;;;13.30;11.80;;;;;;;23.30;58.94;102131.21;106915;1254;25347;-53
2023/09/16 03:14:51;;;;;;;12.40;11.20;;;;;;;23.30;58.88;102134.05;106800;1274;25389;-53
2023/09/16 03:17:18;;;;;;;12.10;11.00;;;;;;;23.30;58.87;102134.58;106838;1270;25319;-53
2023/09/16 03:19:45;;;;;;;12.80;11.50;;;;;;;23.28;58.66;102140.34;106693;1267;25395;-54
2023/09/16 03:22:12;;;;;;;12.60;11.00;;;;;;;23.25;58.41;102145.98;106830;1256;25318;-54
2023/09/16 03:24:39;;;;;;;12.30;11.10;;;;;;;23.23;58.04;102149.65;107008;1263;25481;-53
2023/09/16 03:27:06;;;;;;;12.80;11.50;;;;;;;23.20;57.99;102148.23;106871;1261;25359;-53
2023/09/16 03:29:34;;;;;;;12.90;11.70;;;;;;;23.18;57.99;102151.35;107003;1257;25321;-53
2023/09/16 03:32:01;;;;;;;11.40;10.20;;;;;;;23.17;58.02;102153.33;106852;1264;25395;-55
2023/09/16 03:34:28;;;;;;;12.10;10.70;;;;;;;23.16;58.05;102150.87;106825;1256;22527;-53
2023/09/16 03:36:55;;;;;;;13.40;12.00;;;;;;;23.16;58.01;102152.88;106708;1271;25395;-53
2023/09/16 03:39:22;;;;;;;13.20;12.10;;;;;;;23.14;57.96;102154.38;106839;1270;25372;-54
2023/09/16 03:41:49;;;;;;;14.10;12.60;;;;;;;23.12;57.84;102153.98;106908;1255;25331;-53
2023/09/16 03:44:16;;;;;;;14.60;12.60;;;;;;;23.09;57.83;102158.02;106804;1257;22522;-54
2023/09/16 03:46:43;;;;;;;15.90;14.30;;;;;;;23.07;58.12;102157.92;106942;1267;25321;-53
2023/09/16 03:49:11;;;;;;;16.30;14.60;;;;;;;23.05;58.21;102159.84;106963;1254;22527;-53
2023/09/16 03:51:39;;;;;;;15.80;14.20;;;;;;;23.01;58.59;102165.70;106930;1260;25411;-53
2023/09/16 03:54:07;;;;;;;18.10;14.50;;;;;;;22.98;58.81;102165.45;106686;1267;22548;-53
2023/09/16 03:56:34;;;;;;;17.40;15.50;;;;;;;22.99;58.89;102173.39;107003;1254;23352;-53
2023/09/16 03:59:01;;;;;;;18.10;16.30;;;;;;;22.99;59.14;102178.69;106855;1251;25365;-53
2023/09/16 04:01:28;;;;;;;18.30;16.40;;;;;;;23.02;59.21;102182.24;106839;1253;25330;-54
2023/09/16 04:03:56;;;;;;;18.80;16.90;;;;;;;23.06;59.47;102181.86;106920;1264;25308;-53
2023/09/16 04:06:24;;;;;;;18.90;16.60;;;;;;;23.08;59.47;102180.16;106605;1258;25331;-53
2023/09/16 04:08:51;;;;;;;19.60;16.10;;;;;;;23.09;59.54;102182.95;106978;1251;24250;-53
2023/09/16 04:11:18;;;;;;;17.50;15.60;;;;;;;23.09;59.52;102185.78;106772;1254;25392;-53
2023/09/16 04:13:45;;;;;;;17.20;15.20;;;;;;;23.10;59.72;102187.85;106620;1275;25337;-53
2023/09/16 04:16:13;;;;;;;18.10;16.20;;;;;;;23.13;59.81;102194.08;106737;1257;25481;-53
2023/09/16 04:18:41;;;;;;;19.80;16.00;;;;;;;23.16;59.89;102195.33;106688;1259;25444;-53
2023/09/16 04:21:08;;;;;;;18.80;16.70;;;;;;;23.20;59.85;102200.27;106667;1272;25350;-53
2023/09/16 04:23:35;;;;;;;18.40;16.50;;;;;;;23.22;59.66;102204.05;106663;1254;25365;-53
2023/09/16 04:26:04;;;;;;;19.40;17.40;;;;;;;23.22;59.56;102208.46;106914;1267;25229;-53
2023/09/16 04:28:32;;;;;;;19.10;17.00;;;;;;;23.23;59.53;102210.71;106708;1254;25275;-53
2023/09/16 04:30:59;;;;;;;18.20;16.30;;;;;;;23.24;59.44;102214.37;106897;1264;25386;-53
2023/09/16 04:33:33;;;;;;;19.70;16.20;;;;;;;23.23;59.46;102214.96;106711;1269;25312;-53
2023/09/16 04:36:00;;;;;;;17.80;16.10;;;;;;;23.22;59.72;102219.79;106901;1258;25346;-54
2023/09/16 04:38:28;;;;;;;17.80;15.90;;;;;;;23.24;59.62;102222.52;106800;1264;22530;-53
2023/09/16 04:40:57;;;;;;;16.20;14.40;;;;;;;23.26;59.68;102221.88;106907;1254;25365;-54
2023/09/16 04:43:25;;;;;;;17.60;15.70;;;;;;;23.28;60.00;102224.23;106748;1264;25344;-53
2023/09/16 04:45:54;;;;;;;17.80;15.60;;;;;;;23.30;60.03;102226.10;107007;1260;24454;-54
2023/09/16 04:48:56;;;;;;;16.40;14.80;;;;;;;23.32;59.91;102230.64;106330;1270;23896;-53
2023/09/16 04:51:23;;;;;;;16.20;13.90;;;;;;;23.33;60.03;102235.55;106206;1271;25568;-53
2023/09/16 04:53:51;;;;;;;12.30;11.10;;;;;;;23.35;59.81;102238.10;106276;1257;24417;-53
2023/09/16 04:56:20;;;;;;;10.90;9.90;;;;;;;23.35;59.61;102239.50;106057;1277;25339;-53
2023/09/16 04:58:49;;;;;;;12.80;11.40;;;;;;;23.34;59.28;102245.77;106273;1263;25338;-53
2023/09/16 05:01:17;;;;;;;10.20;9.10;;;;;;;23.33;59.40;102243.19;106279;1273;25366;-54
2023/09/16 05:03:44;;;;;;;9.40;8.40;;;;;;;23.33;59.25;102245.67;106278;1267;23871;-53
2023/09/16 05:06:12;;;;;;;9.30;8.30;;;;;;;23.33;59.04;102247.23;106229;1263;25373;-53
2023/09/16 05:08:38;;;;;;;9.00;8.10;;;;;;;23.33;58.77;102256.64;106266;1275;25323;-53
2023/09/16 05:11:06;;;;;;;9.40;8.30;;;;;;;23.32;58.52;102254.02;106225;1281;23265;-54
2023/09/16 05:13:45;;;;;;;9.50;8.20;;;;;;;23.30;58.12;102254.42;106355;1273;25449;-53
2023/09/16 05:16:13;;;;;;;8.90;8.20;;;;;;;23.29;58.18;102253.95;106372;1275;25271;-54
2023/09/16 05:18:40;;;;;;;9.20;8.00;;;;;;;23.30;58.12;102254.24;106301;1270;25666;-54
2023/09/16 05:21:07;;;;;;;8.60;7.70;;;;;;;23.31;58.07;102253.88;106250;1276;24513;-55
2023/09/16 05:23:34;;;;;;;8.80;7.40;;;;;;;23.31;58.12;102254.55;106623;1260;25481;-56
2023/09/16 05:26:04;;;;;;;7.50;6.80;;;;;;;23.32;57.86;102257.20;106902;1257;25346;-52
2023/09/16 05:28:33;;;;;;;8.30;7.50;;;;;;;23.34;57.98;102259.77;106976;1254;24053;-52
2023/09/16 05:31:03;;;;;;;7.70;6.60;;;;;;;23.35;57.85;102263.45;107060;1264;22523;-54
2023/09/16 05:33:33;;;;;;;8.00;7.20;;;;;;;23.37;57.71;102262.05;106881;1251;22524;-54
2023/09/16 05:36:00;;;;;;;7.50;6.80;;;;;;;23.40;57.67;102259.08;106917;1254;25346;-53
2023/09/16 05:38:27;;;;;;;7.70;7.00;;;;;;;23.47;57.76;102259.12;106851;1254;25322;-54
2023/09/16 05:40:55;;;;;;;8.40;7.40;;;;;;;23.54;57.61;102261.73;106909;1267;25359;-53
2023/09/16 05:43:23;;;;;;;10.00;7.40;;;;;;;23.59;57.21;102263.57;106955;1264;25375;-54
2023/09/16 05:45:50;;;;;;;7.00;6.40;;;;;;;23.62;57.07;102261.29;106788;1267;25341;-54
2023/09/16 05:48:18;;;;;;;7.20;6.40;;;;;;;23.66;56.87;102269.08;106862;1255;22550;-55
2023/09/16 05:50:56;;;;;;;7.50;6.80;;;;;;;23.67;56.60;102271.48;106840;1267;22546;-54
2023/09/16 05:53:25;;;;;;;7.60;6.90;;;;;;;23.67;56.61;102275.18;106984;1254;25340;-54
2023/09/16 05:55:55;;;;;;;7.90;7.10;;;;;;;23.70;56.48;102278.63;106801;1256;22764;-54
2023/09/16 05:58:23;;;;;;;8.20;6.90;;;;;;;23.71;56.53;102283.34;106877;1260;25366;-54
2023/09/16 06:00:54;;;;;;;7.90;7.10;;;;;;;23.71;56.54;102287.20;106813;1257;25571;-54
2023/09/16 06:03:22;;;;;;;7.20;6.60;;;;;;;23.71;56.50;102289.35;106649;1266;22744;-54
2023/09/16 06:05:57;;;;;;;9.10;6.90;;;;;;;23.73;56.51;102298.83;106874;1263;25465;-54
2023/09/16 06:08:24;;;;;;;7.70;7.10;;;;;;;23.76;56.08;102298.85;106727;1267;22572;-54
2023/09/16 06:10:51;;;;;;;7.90;7.10;;;;;;;23.77;55.82;102303.92;106749;1258;24339;-53
2023/09/16 06:13:18;;;;;;;7.90;6.80;;;;;;;23.80;55.51;102309.27;106911;1256;25379;-54
2023/09/16 06:15:45;;;;;;;8.70;7.30;;;;;;;23.80;55.19;102307.14;106958;1257;25340;-54
2023/09/16 06:18:13;;;;;;;7.30;6.60;;;;;;;23.77;55.11;102314.02;106928;1263;25601;-55
2023/09/16 06:20:40;;;;;;;6.40;5.80;;;;;;;23.78;54.93;102315.40;106952;1263;25382;-53
2023/09/16 06:23:07;;;;;;;6.80;6.10;;;;;;;23.76;54.83;102318.48;106832;1256;25481;-53
2023/09/16 06:25:35;;;;;;;6.30;5.70;;;;;;;23.74;54.84;102317.58;106804;1251;25340;-54
2023/09/16 06:28:03;;;;;;;9.30;5.90;;;;;;;23.72;54.88;102324.37;106852;1257;25385;-54
2023/09/16 06:30:31;;;;;;;6.60;6.00;;;;;;;23.70;54.89;102324.83;106715;1256;22588;-54
2023/09/16 06:32:58;;;;;;;6.10;5.50;;;;;;;23.70;55.00;102328.38;106937;1251;24271;-53
2023/09/16 06:35:26;;;;;;;6.90;5.50;;;;;;;23.69;54.63;102328.26;106640;1269;25345;-53
2023/09/16 06:37:53;;;;;;;6.10;5.50;;;;;;;23.68;54.75;102330.05;106573;1258;25328;-53
2023/09/16 06:40:20;;;;;;;5.80;5.30;;;;;;;23.70;54.85;102335.67;106930;1260;25408;-53
2023/09/16 06:42:47;;;;;;;6.60;6.00;;;;;;;23.70;54.70;102339.73;106390;1272;24221;-53
2023/09/16 06:45:17;;;;;;;6.20;5.60;;;;;;;23.70;54.72;102339.36;106878;1267;25226;-54
2023/09/16 06:47:44;;;;;;;6.90;6.20;;;;;;;23.68;54.59;102336.66;106930;1257;25369;-53
2023/09/16 06:50:12;;;;;;;7.10;6.00;;;;;;;23.68;54.68;102334.89;106918;1257;25392;-53
2023/09/16 06:52:39;;;;;;;6.20;5.60;;;;;;;23.67;54.57;102332.79;106653;1259;25312;-53
2023/09/16 06:55:06;;;;;;;6.60;5.90;;;;;;;23.67;54.47;102338.11;106672;1264;25923;-53
2023/09/16 06:57:33;;;;;;;7.40;5.60;;;;;;;23.69;54.59;102342.64;106678;1263;25359;-53
2023/09/16 07:00:18;;;;;;;6.40;5.60;;;;;;;23.74;54.54;102342.55;106864;1257;25334;-54
2023/09/16 07:02:46;;;;;;;7.10;6.10;;;;;;;23.80;54.65;102343.64;106899;1267;24428;-53
2023/09/16 07:05:13;;;;;;;6.60;6.10;;;;;;;23.85;54.74;102342.27;106682;1255;25319;-54
2023/09/16 07:07:41;;;;;;;7.10;6.10;;;;;;;23.92;54.41;102340.71;106940;1260;22524;-53
2023/09/16 07:10:08;;;;;;;7.50;6.80;;;;;;;23.94;54.45;102340.05;106704;1267;25328;-53
2023/09/16 07:12:35;;;;;;;13.30;7.20;;;;;;;23.99;54.27;102342.09;106918;1260;22640;-53
2023/09/16 07:15:03;;;;;;;7.90;6.20;;;;;;;24.06;53.85;102342.26;106328;1266;398250;-54
2023/09/16 07:17:32;;;;;;;7.70;6.90;;;;;;;24.13;53.90;102340.64;106675;1258;25350;-53
2023/09/16 07:19:59;;;;;;;6.80;6.20;;;;;;;24.22;53.53;102342.66;106638;1257;25337;-53
2023/09/16 07:22:26;;;;;;;6.90;6.30;;;;;;;24.25;53.31;102345.69;106876;1256;25468;-53
2023/09/16 07:24:54;;;;;;;7.40;6.60;;;;;;;24.30;53.07;102344.89;106941;1256;25346;-53
2023/09/16 07:27:21;;;;;;;8.20;6.60;;;;;;;24.34;52.92;102343.29;106769;1260;25327;-54
2023/09/16 07:29:48;;;;;;;7.30;6.70;;;;;;;24.36;52.71;102343.71;106721;1267;25372;-54
2023/09/16 07:32:15;;;;;;;7.10;6.40;;;;;;;24.34;52.75;102344.52;106906;1251;25372;-54
2023/09/16 07:34:42;;;;;;;7.00;6.40;;;;;;;24.32;52.60;102340.92;106783;1267;25395;-53
2023/09/16 07:37:09;;;;;;;7.20;6.50;;;;;;;24.31;52.56;102341.64;106999;1254;23269;-53
2023/09/16 07:39:36;;;;;;;7.90;6.60;;;;;;;24.33;52.26;102346.16;106881;1254;25356;-54
2023/09/16 07:42:04;;;;;;;7.40;6.40;;;;;;;24.37;52.20;102345.80;106940;1253;22551;-53
2023/09/16 07:44:30;;;;;;;6.50;5.90;;;;;;;24.39;51.96;102343.38;106704;1256;25347;-54
2023/09/16 07:46:57;;;;;;;6.70;6.10;;;;;;;24.41;51.79;102344.30;106744;1251;25399;-53
2023/09/16 07:49:24;;;;;;;8.50;6.50;;;;;;;24.45;51.82;102347.77;106910;1264;25318;-53
2023/09/16 07:51:52;;;;;;;7.30;6.60;;;;;;;24.50;51.78;102345.05;106965;1251;25395;-54
2023/09/16 07:54:19;;;;;;;8.70;6.80;;;;;;;24.56;51.74;102348.46;106878;1254;25395;-55
2023/09/16 07:56:46;;;;;;;6.90;6.30;;;;;;;24.56;51.58;102348.43;106636;1263;26605;-53
2023/09/16 07:59:19;;;;;;;8.20;7.50;;;;;;;24.59;51.66;102350.05;107030;1264;25352;-54
2023/09/16 08:01:46;;;;;;;7.70;7.00;;;;;;;24.60;51.56;102349.48;106533;1273;25324;-54
2023/09/16 08:04:14;;;;;;;8.00;7.30;;;;;;;24.61;51.55;102348.48;106917;1254;25417;-53
2023/09/16 08:06:41;;;;;;;7.40;6.70;;;;;;;24.60;51.48;102354.41;106712;1271;25325;-53
2023/09/16 08:09:08;;;;;;;7.50;6.80;;;;;;;24.60;51.42;102350.70;106977;1254;25475;-53
2023/09/16 08:11:35;;;;;;;7.60;6.90;;;;;;;24.60;51.36;102348.39;106939;1254;24345;-53
2023/09/16 08:14:02;;;;;;;8.00;7.20;;;;;;;24.60;51.14;102348.20;106949;1254;25388;-54
2023/09/16 08:16:29;;;;;;;7.80;7.20;;;;;;;24.60;51.01;102348.40;107049;1257;25468;-54
2023/09/16 08:18:57;;;;;;;8.60;7.10;;;;;;;24.60;50.92;102349.11;107003;1257;25336;-53
2023/09/16 08:21:24;;;;;;;8.00;7.20;;;;;;;24.62;50.80;102355.58;106935;1251;25513;-53
2023/09/16 08:23:51;;;;;;;7.50;6.70;;;;;;;24.64;50.99;102355.79;106734;1261;25319;-54
2023/09/16 08:26:18;;;;;;;8.10;7.10;;;;;;;24.67;50.97;102360.04;106656;1257;25328;-54
2023/09/16 08:28:45;;;;;;;8.00;7.20;;;;;;;24.72;50.86;102358.02;106919;1251;25233;-53
2023/09/16 08:31:12;;;;;;;7.50;6.80;;;;;;;24.75;50.43;102359.27;107024;1254;25328;-53
2023/09/16 08:33:39;;;;;;;7.50;6.80;;;;;;;24.77;50.41;102363.08;106536;1273;25469;-53
2023/09/16 08:36:06;;;;;;;8.10;7.30;;;;;;;24.80;50.63;102360.94;106886;1250;25370;-53
2023/09/16 08:38:33;;;;;;;7.50;6.80;;;;;;;24.85;51.03;102361.70;106663;1267;25356;-53
2023/09/16 08:41:39;;;;;;;7.40;6.70;;;;;;;24.93;50.64;102357.38;106958;1251;25522;-54
2023/09/16 08:44:06;;;;;;;7.10;6.50;;;;;;;24.96;50.14;102358.23;106909;1254;25356;-53
2023/09/16 08:46:34;;;;;;;7.90;7.20;;;;;;;24.98;49.95;102356.17;106902;1256;25398;-53
2023/09/16 08:49:03;;;;;;;7.00;6.40;;;;;;;25.03;49.93;102358.02;106648;1267;25370;-54
2023/09/16 08:51:32;;;;;;;8.00;7.20;;;;;;;25.07;49.89;102353.17;106740;1265;25365;-54
2023/09/16 08:53:59;;;;;;;7.80;7.10;;;;;;;25.10;49.94;102357.09;106863;1251;25318;-55
2023/09/16 08:56:27;;;;;;;7.50;6.80;;;;;;;25.14;49.74;102357.40;106621;1260;25420;-53
2023/09/16 08:58:54;;;;;;;7.90;7.10;;;;;;;25.19;49.77;102366.52;107017;1254;25277;-53
2023/09/16 09:01:21;;;;;;;7.80;7.10;;;;;;;25.23;49.71;102365.05;106944;1257;24233;-54
2023/09/16 09:03:49;;;;;;;7.30;6.70;;;;;;;25.30;49.52;102364.11;106977;1257;25436;-54
2023/09/16 09:06:16;;;;;;;9.40;7.40;;;;;;;25.34;49.29;102361.53;107002;1254;25315;-54
2023/09/16 09:09:00;;;;;;;8.50;7.00;;;;;;;25.35;48.84;102357.43;106898;1261;23430;-54
2023/09/16 09:11:31;;;;;;;8.60;7.50;;;;;;;25.32;49.09;102357.60;106907;1253;22707;-55
2023/09/16 09:13:59;;;;;;;7.50;6.80;;;;;;;25.32;49.00;102355.61;106698;1267;24217;-55
2023/09/16 09:16:26;;;;;;;7.20;6.50;;;;;;;25.35;49.07;102358.46;106761;1260;25344;-54
2023/09/16 09:18:56;;;;;;;7.80;6.90;;;;;;;25.39;48.84;102360.75;106859;1251;22532;-54
2023/09/16 09:21:23;;;;;;;7.70;7.10;;;;;;;25.44;48.49;102359.23;106719;1257;22531;-54
2023/09/16 09:23:50;;;;;;;7.00;6.40;;;;;;;25.46;48.29;102364.42;107020;1253;25338;-54
2023/09/16 09:26:17;;;;;;;8.40;7.70;;;;;;;25.49;48.24;102364.45;106655;1267;25613;-54
2023/09/16 09:28:47;;;;;;;7.70;7.00;;;;;;;25.53;48.19;102363.27;106692;1266;25328;-54
2023/09/16 09:31:15;;;;;;;7.40;6.80;;;;;;;25.57;47.96;102362.70;106762;1269;25377;-54
2023/09/16 09:33:44;;;;;;;8.00;7.30;;;;;;;25.60;47.68;102361.98;106825;1257;25404;-54
2023/09/16 09:36:13;;;;;;;7.90;7.00;;;;;;;25.59;47.50;102357.23;106917;1258;25395;-54
2023/09/16 09:38:44;;;;;;;7.60;7.00;;;;;;;25.60;47.83;102357.74;106908;1250;22539;-54
2023/09/16 09:41:12;;;;;;;8.20;7.20;;;;;;;25.63;47.89;102357.92;106980;1250;26573;-53
2023/09/16 09:43:39;;;;;;;7.10;6.50;;;;;;;25.64;47.75;102359.26;107270;1250;23236;-56
2023/09/16 09:46:06;;;;;;;7.60;6.90;;;;;;;25.66;48.05;102356.14;107255;1259;22688;-56
2023/09/16 09:48:36;;;;;;;7.50;6.90;;;;;;;25.70;47.93;102357.27;106905;1259;24381;-55
2023/09/16 09:51:05;;;;;;;7.60;6.90;;;;;;;25.77;47.76;102357.73;106839;1253;25334;-55
2023/09/16 09:53:32;;;;;;;7.80;7.10;;;;;;;25.84;47.91;102355.02;107078;1257;25267;-55
2023/09/16 09:55:59;;;;;;;7.30;6.60;;;;;;;25.93;47.68;102357.20;106760;1260;25392;-55
2023/09/16 09:58:26;;;;;;;7.40;6.60;;;;;;;25.99;47.31;102355.39;106862;1256;23098;-55
2023/09/16 10:00:53;;;;;;;7.60;7.00;;;;;;;26.03;46.97;102356.91;106965;1254;25352;-55
2023/09/16 10:03:24;;;;;;;7.90;7.20;;;;;;;26.08;47.01;102357.70;106982;1257;25338;-55
2023/09/16 10:05:51;;;;;;;8.40;7.60;;;;;;;26.12;46.89;102360.32;106797;1269;25376;-54
2023/09/16 10:08:18;;;;;;;7.60;7.00;;;;;;;26.13;46.70;102358.45;107153;1251;25580;-56
2023/09/16 10:10:46;;;;;;;7.70;7.10;;;;;;;26.16;46.72;102355.80;106797;1257;22612;-55
2023/09/16 10:13:13;;;;;;;8.10;7.30;;;;;;;26.16;46.48;102354.70;107030;1253;22777;-55
2023/09/16 10:15:40;;;;;;;7.20;6.60;;;;;;;26.12;46.42;102355.33;107022;1255;23307;-56
2023/09/16 10:18:07;;;;;;;7.70;7.10;;;;;;;26.11;46.67;102356.08;107077;1257;22547;-55
2023/09/16 10:20:37;;;;;;;7.60;7.00;;;;;;;26.13;46.76;102347.60;106489;1261;25390;-55
2023/09/16 10:23:04;;;;;;;8.40;7.30;;;;;;;26.14;46.50;102347.19;106937;1251;22520;-56
2023/09/16 10:25:32;;;;;;;7.80;7.10;;;;;;;26.11;46.52;102343.47;107103;1260;25350;-55
2023/09/16 10:28:05;;;;;;;8.40;7.00;;;;;;;26.10;46.80;102347.64;106873;1256;25423;-55
2023/09/16 10:30:34;;;;;;;7.00;6.40;;;;;;;26.12;46.99;102344.27;107373;1250;24140;-55
2023/09/16 10:33:04;;;;;;;7.30;6.60;;;;;;;26.17;46.61;102341.86;106845;1250;25405;-55
2023/09/16 10:35:37;;;;;;;7.20;6.50;;;;;;;26.21;46.56;102337.70;107047;1254;22520;-55
2023/09/16 10:38:05;;;;;;;7.90;7.20;;;;;;;26.22;46.66;102333.15;106762;1256;25214;-56
2023/09/16 10:40:32;;;;;;;6.90;6.40;;;;;;;26.26;46.70;102333.80;107215;1254;23899;-55
2023/09/16 10:43:01;;;;;;;7.70;6.50;;;;;;;26.28;46.63;102331.15;106540;1272;25363;-55
2023/09/16 10:45:31;;;;;;;6.60;6.10;;;;;;;26.32;46.60;102330.17;106896;1263;25484;-55
2023/09/16 10:48:01;;;;;;;7.40;6.30;;;;;;;26.36;46.28;102332.09;107201;1258;25395;-55
2023/09/16 10:50:35;;;;;;;7.30;6.40;;;;;;;26.39;46.36;102332.77;107249;1254;25353;-55
2023/09/16 10:53:10;;;;;;;7.90;6.30;;;;;;;26.44;46.53;102336.23;106930;1256;25786;-55
2023/09/16 10:55:44;;;;;;;12.90;7.40;;;;;;;26.48;46.43;102338.23;106869;1254;25318;-55
2023/09/16 10:58:17;;;;;;;7.40;6.70;;;;;;;26.51;46.47;102333.08;107178;1255;22641;-55
2023/09/16 11:00:50;;;;;;;6.90;6.10;;;;;;;26.55;46.68;102339.94;107310;1257;23234;-56
2023/09/16 11:03:17;;;;;;;9.30;6.30;;;;;;;26.59;46.45;102342.86;107024;1267;24346;-56
2023/09/16 11:05:45;;;;;;;6.80;6.10;;;;;;;26.62;46.31;102344.82;107188;1251;25357;-56
2023/09/16 11:08:12;;;;;;;7.10;6.10;;;;;;;26.65;46.19;102343.40;107247;1256;22527;-55
2023/09/16 11:10:39;;;;;;;6.60;5.60;;;;;;;26.69;45.94;102342.42;106537;1250;25445;-55
2023/09/16 11:13:06;;;;;;;5.80;5.20;;;;;;;26.74;46.08;102345.52;106998;1253;23273;-56
2023/09/16 11:15:34;;;;;;;6.80;6.20;;;;;;;26.78;46.16;102342.91;106990;1254;25329;-55
2023/09/16 11:18:04;;;;;;;6.60;6.00;;;;;;;26.83;45.90;102347.41;106998;1255;22523;-55